Terminal Aerodrome Forecast
Issued by NWS Charleston, WV

Current Version | Previous Version | Graphics & Text | Print | Product List | Glossary On
Versions: 1 2 3 4 5 6 7 8 9 10 11 12 13 14 15 16 17 18 19 20 21 22 23 24 25
000
FTUS41 KRLX 011300 AAB
TAFHTS
TAF AMD
KHTS 011303Z 0113/0212 20007KT P6SM OVC035
     FM011600 24007KT P6SM BKN035
     FM011900 23008KT P6SM SCT040
     FM020100 21003KT P6SM SCT035
     FM020700 00000KT 5SM BR BKN025=

USA.gov is the U.S. government's official web portal to all federal, state and local government web resources and services.